Time,TemperatureF,DewpointF,PressureIn,WindDirection,WindDirectionDegrees,WindSpeedMPH,WindSpeedGustMPH,Humidity,HourlyPrecipIn,Conditions,Clouds,dailyrainin,SoftwareType,DateUTC
2013-11-27 00:12:00,38.0,38.0,29.82,North,8,0.0,0.0,100,0.00,,,0.07,,2013-11-27 05:12:00,
2013-11-27 00:22:00,38.0,38.0,29.82,North,8,0.0,0.0,100,0.00,,,0.07,,2013-11-27 05:22:00,
2013-11-27 00:33:00,38.0,38.0,29.82,North,8,0.0,0.0,100,0.00,,,0.07,,2013-11-27 05:33:00,
2013-11-27 02:22:00,35.0,35.0,29.84,North,8,0.0,0.0,100,0.00,,,0.01,,2013-11-27 07:22:00,
2013-11-27 02:32:00,35.0,35.0,29.84,North,8,0.0,0.0,100,0.00,,,0.01,,2013-11-27 07:32:00,
2013-11-27 02:52:00,35.0,35.0,29.84,North,8,0.0,0.0,100,0.00,,,0.01,,2013-11-27 07:52:00,
2013-11-27 03:43:00,34.0,34.0,29.86,North,8,0.0,0.0,100,0.00,,,0.01,,2013-11-27 08:43:00,
2013-11-27 03:53:00,34.0,34.0,29.86,North,8,0.0,0.0,100,0.00,,,0.01,,2013-11-27 08:53:00,
2013-11-27 04:12:00,34.0,34.0,29.86,North,8,0.0,0.0,100,0.00,,,0.01,,2013-11-27 09:12:00,
2013-11-27 04:22:00,34.0,34.0,29.86,North,8,0.0,0.0,100,0.00,,,0.01,,2013-11-27 09:22:00,
2013-11-27 04:33:00,34.0,34.0,29.86,North,8,0.0,0.0,100,0.00,,,0.01,,2013-11-27 09:33:00,
2013-11-27 05:23:00,33.0,33.0,29.88,North,8,0.0,0.0,100,0.00,,,0.01,,2013-11-27 10:23:00,
2013-11-27 05:42:00,33.0,33.0,29.88,North,8,0.0,0.0,100,0.00,,,0.01,,2013-11-27 10:42:00,
2013-11-27 05:53:00,33.0,33.0,29.88,North,8,0.0,0.0,100,0.00,,,0.01,,2013-11-27 10:53:00,
2013-11-27 06:02:00,33.0,33.0,29.88,North,8,0.0,0.0,100,0.00,,,0.01,,2013-11-27 11:02:00,
2013-11-27 06:22:00,33.0,33.0,29.89,North,8,0.0,0.0,100,0.00,,,0.01,,2013-11-27 11:22:00,
2013-11-27 06:42:00,33.0,33.0,29.90,North,8,0.0,0.0,100,0.00,,,0.01,,2013-11-27 11:42:00,
2013-11-27 06:53:00,33.0,33.0,29.90,North,8,0.0,0.0,100,0.00,,,0.01,,2013-11-27 11:53:00,
2013-11-27 07:22:00,33.0,33.0,29.92,North,8,0.0,0.0,100,0.00,,,0.01,,2013-11-27 12:22:00,
2013-11-27 07:32:00,33.0,33.0,29.92,North,8,0.0,0.0,100,0.00,,,0.01,,2013-11-27 12:32:00,
2013-11-27 07:52:00,33.0,33.0,29.93,North,8,0.0,0.0,100,0.00,,,0.01,,2013-11-27 12:52:00,
2013-11-27 08:11:00,33.0,33.0,29.94,North,8,0.0,0.0,99,0.00,,,0.01,,2013-11-27 13:11:00,
2013-11-27 08:22:00,33.0,33.0,29.94,North,8,0.0,0.0,99,0.00,,,0.01,,2013-11-27 13:22:00,
2013-11-27 08:32:00,33.0,33.0,29.94,North,8,0.0,0.0,99,0.00,,,0.01,,2013-11-27 13:32:00,
2013-11-27 09:53:00,34.0,34.0,29.96,North,8,0.0,0.0,100,0.00,,,0.01,,2013-11-27 14:53:00,
2013-11-27 10:12:00,34.0,34.0,29.96,North,8,0.0,0.0,100,0.00,,,0.01,,2013-11-27 15:12:00,
2013-11-27 10:22:00,34.0,34.0,29.96,North,8,0.0,0.0,100,0.00,,,0.01,,2013-11-27 15:22:00,
2013-11-27 10:33:00,34.0,34.0,29.96,North,8,0.0,0.0,100,0.00,,,0.01,,2013-11-27 15:33:00,
2013-11-27 11:13:00,34.0,33.0,29.99,North,8,0.0,0.0,96,0.00,,,0.01,,2013-11-27 16:13:00,
2013-11-27 11:24:00,34.0,33.0,29.99,North,8,0.0,0.0,96,0.00,,,0.01,,2013-11-27 16:24:00,
2013-11-27 11:53:00,34.0,33.0,29.99,North,4,0.0,0.0,96,0.00,,,0.00,,2013-11-27 16:53:00,
2013-11-27 12:02:00,34.0,33.0,29.99,North,4,0.0,0.0,96,0.00,,,0.00,,2013-11-27 17:02:00,
2013-11-27 12:12:00,34.0,33.0,29.99,North,4,0.0,0.0,96,0.00,,,0.00,,2013-11-27 17:12:00,
2013-11-27 12:22:00,34.0,33.0,29.99,North,4,0.0,0.0,96,0.00,,,0.00,,2013-11-27 17:22:00,
2013-11-27 13:12:00,37.0,32.0,30.00,WSW,257,0.0,7.0,82,0.00,,,0.00,,2013-11-27 18:12:00,
2013-11-27 13:22:00,37.0,32.0,30.00,WSW,257,0.0,7.0,82,0.00,,,0.00,,2013-11-27 18:22:00,
2013-11-27 13:43:00,36.0,29.0,30.01,West,262,0.0,8.0,77,0.01,,,0.01,,2013-11-27 18:43:00,
2013-11-27 13:52:00,36.0,29.0,30.01,West,262,0.0,8.0,77,0.01,,,0.01,,2013-11-27 18:52:00,
2013-11-27 14:02:00,36.0,29.0,30.01,West,262,0.0,8.0,77,0.01,,,0.01,,2013-11-27 19:02:00,
2013-11-27 14:22:00,35.0,30.0,30.04,NW,307,5.0,9.0,81,0.04,,,0.05,,2013-11-27 19:22:00,
2013-11-27 14:42:00,35.0,31.0,30.04,NW,315,0.0,6.0,86,0.03,,,0.05,,2013-11-27 19:42:00,
2013-11-27 14:52:00,35.0,31.0,30.04,NW,315,0.0,6.0,86,0.03,,,0.05,,2013-11-27 19:52:00,
2013-11-27 15:02:00,35.0,31.0,30.04,NW,315,0.0,6.0,86,0.03,,,0.05,,2013-11-27 20:02:00,
2013-11-27 15:11:00,35.0,31.0,30.04,NW,315,0.0,6.0,86,0.03,,,0.05,,2013-11-27 20:11:00,
2013-11-27 15:42:00,34.0,30.0,30.07,WNW,286,3.0,9.0,86,0.01,,,0.06,,2013-11-27 20:42:00,
2013-11-27 15:53:00,34.0,30.0,30.07,WNW,286,3.0,9.0,86,0.01,,,0.06,,2013-11-27 20:53:00,
2013-11-27 16:02:00,34.0,30.0,30.07,WNW,286,3.0,9.0,86,0.01,,,0.06,,2013-11-27 21:02:00,
2013-11-27 16:53:00,32.0,29.0,30.14,North,0,0.0,0.0,90,0.00,,,0.06,,2013-11-27 21:53:00,
2013-11-27 17:03:00,32.0,29.0,30.14,North,0,0.0,0.0,90,0.00,,,0.06,,2013-11-27 22:03:00,
2013-11-27 17:23:00,31.0,29.0,30.15,WNW,287,0.0,7.0,91,0.00,,,0.06,,2013-11-27 22:23:00,
2013-11-27 17:52:00,31.0,28.0,30.17,West,272,1.0,7.0,90,0.00,,,0.06,,2013-11-27 22:52:00,
2013-11-27 18:02:00,31.0,28.0,30.17,West,272,1.0,7.0,90,0.00,,,0.06,,2013-11-27 23:02:00,
2013-11-27 18:12:00,31.0,28.0,30.17,West,272,1.0,7.0,90,0.00,,,0.06,,2013-11-27 23:12:00,
2013-11-27 18:22:00,31.0,28.0,30.17,West,272,1.0,7.0,90,0.00,,,0.06,,2013-11-27 23:22:00,
2013-11-27 18:53:00,30.0,28.0,30.21,NNW,333,0.0,0.0,91,0.00,,,0.06,,2013-11-27 23:53:00,
2013-11-27 19:02:00,30.0,28.0,30.21,NNW,333,0.0,0.0,91,0.00,,,0.06,,2013-11-28 00:02:00,
2013-11-27 19:12:00,30.0,28.0,30.21,NNW,333,0.0,0.0,91,0.00,,,0.06,,2013-11-28 00:12:00,
2013-11-27 19:22:00,30.0,28.0,30.21,NNW,333,0.0,0.0,91,0.00,,,0.06,,2013-11-28 00:22:00,
2013-11-27 20:42:00,30.0,27.0,30.25,WSW,239,0.0,0.0,89,0.00,,,0.06,,2013-11-28 01:42:00,
2013-11-27 20:52:00,30.0,27.0,30.25,WSW,239,0.0,0.0,89,0.00,,,0.06,,2013-11-28 01:52:00,
2013-11-27 21:12:00,30.0,27.0,30.26,WSW,239,0.0,0.0,90,0.00,,,0.06,,2013-11-28 02:12:00,
2013-11-27 21:22:00,30.0,27.0,30.26,WSW,239,0.0,0.0,90,0.00,,,0.06,,2013-11-28 02:22:00,
2013-11-27 21:32:00,30.0,27.0,30.26,WSW,239,0.0,0.0,90,0.00,,,0.06,,2013-11-28 02:32:00,
2013-11-27 21:41:00,30.0,27.0,30.26,WSW,239,0.0,0.0,90,0.00,,,0.06,,2013-11-28 02:41:00,
2013-11-27 22:11:00,30.0,27.0,30.28,West,272,0.0,0.0,88,0.00,,,0.06,,2013-11-28 03:11:00,
2013-11-27 22:22:00,30.0,27.0,30.28,West,272,0.0,0.0,88,0.00,,,0.06,,2013-11-28 03:22:00,
2013-11-27 22:33:00,30.0,27.0,30.28,West,272,0.0,0.0,88,0.00,,,0.06,,2013-11-28 03:33:00,
2013-11-27 22:53:00,30.0,28.0,30.29,West,272,0.0,0.0,93,0.00,,,0.06,,2013-11-28 03:53:00,
2013-11-27 23:04:00,30.0,28.0,30.29,West,272,0.0,0.0,93,0.00,,,0.06,,2013-11-28 04:04:00,
2013-11-27 23:12:00,30.0,28.0,30.29,West,272,0.0,0.0,93,0.00,,,0.06,,2013-11-28 04:12:00,
2013-11-27 23:23:00,30.0,28.0,30.29,West,272,0.0,0.0,93,0.00,,,0.06,,2013-11-28 04:23:00,
2013-11-27 23:52:00,30.0,28.0,30.29,West,272,0.0,0.0,92,0.00,,,0.06,,2013-11-28 04:52:00,